sensor_id;sensor_type;location;lat;lon;timestamp;P1;durP1;ratioP1;P2;durP2;ratioP2
11984;SDS011;6052;53.246;10.368;2024-03-22T00:01:55;11.90;;;5.90;;
11984;SDS011;6052;53.246;10.368;2024-03-22T00:04:21;12.40;;;6.57;;
11984;SDS011;6052;53.246;10.368;2024-03-22T00:06:48;12.50;;;6.30;;
11984;SDS011;6052;53.246;10.368;2024-03-22T00:09:15;10.40;;;5.80;;
11984;SDS011;6052;53.246;10.368;2024-03-22T00:11:42;10.47;;;6.13;;
11984;SDS011;6052;53.246;10.368;2024-03-22T00:14:09;11.60;;;6.17;;
11984;SDS011;6052;53.246;10.368;2024-03-22T00:16:39;9.85;;;5.97;;
11984;SDS011;6052;53.246;10.368;2024-03-22T00:19:05;8.93;;;5.93;;
11984;SDS011;6052;53.246;10.368;2024-03-22T00:21:31;7.80;;;5.40;;
11984;SDS011;6052;53.246;10.368;2024-03-22T00:23:58;9.53;;;6.27;;
11984;SDS011;6052;53.246;10.368;2024-03-22T00:26:24;11.63;;;6.10;;
11984;SDS011;6052;53.246;10.368;2024-03-22T00:28:50;11.90;;;6.07;;
11984;SDS011;6052;53.246;10.368;2024-03-22T00:31:16;11.00;;;5.63;;
11984;SDS011;6052;53.246;10.368;2024-03-22T00:33:46;9.27;;;6.03;;
11984;SDS011;6052;53.246;10.368;2024-03-22T00:36:12;12.80;;;5.90;;
11984;SDS011;6052;53.246;10.368;2024-03-22T00:38:38;11.10;;;6.13;;
11984;SDS011;6052;53.246;10.368;2024-03-22T00:41:04;9.70;;;6.28;;
11984;SDS011;6052;53.246;10.368;2024-03-22T00:43:31;8.77;;;6.23;;
11984;SDS011;6052;53.246;10.368;2024-03-22T00:45:57;12.03;;;6.70;;
11984;SDS011;6052;53.246;10.368;2024-03-22T00:48:24;10.40;;;6.65;;
11984;SDS011;6052;53.246;10.368;2024-03-22T00:50:52;9.67;;;6.33;;
11984;SDS011;6052;53.246;10.368;2024-03-22T00:53:19;9.33;;;6.03;;
11984;SDS011;6052;53.246;10.368;2024-03-22T00:55:45;10.93;;;6.23;;
11984;SDS011;6052;53.246;10.368;2024-03-22T00:58:11;10.83;;;6.70;;
11984;SDS011;6052;53.246;10.368;2024-03-22T01:00:38;13.17;;;6.47;;
11984;SDS011;6052;53.246;10.368;2024-03-22T01:03:04;10.20;;;7.10;;
11984;SDS011;6052;53.246;10.368;2024-03-22T01:05:30;12.20;;;7.97;;
11984;SDS011;6052;53.246;10.368;2024-03-22T01:07:59;10.93;;;6.83;;
11984;SDS011;6052;53.246;10.368;2024-03-22T01:10:25;12.53;;;7.27;;
11984;SDS011;6052;53.246;10.368;2024-03-22T01:12:51;11.83;;;7.53;;
11984;SDS011;6052;53.246;10.368;2024-03-22T01:15:18;14.87;;;7.80;;
11984;SDS011;6052;53.246;10.368;2024-03-22T01:17:44;13.50;;;7.30;;
11984;SDS011;6052;53.246;10.368;2024-03-22T01:20:10;13.83;;;7.80;;
11984;SDS011;6052;53.246;10.368;2024-03-22T01:22:37;13.33;;;6.90;;
11984;SDS011;6052;53.246;10.368;2024-03-22T01:25:06;10.97;;;7.60;;
11984;SDS011;6052;53.246;10.368;2024-03-22T01:27:33;12.67;;;7.80;;
11984;SDS011;6052;53.246;10.368;2024-03-22T01:29:59;10.23;;;7.17;;
11984;SDS011;6052;53.246;10.368;2024-03-22T01:32:25;11.87;;;8.10;;
11984;SDS011;6052;53.246;10.368;2024-03-22T01:34:51;10.97;;;7.77;;
11984;SDS011;6052;53.246;10.368;2024-03-22T01:37:18;13.83;;;7.83;;
11984;SDS011;6052;53.246;10.368;2024-03-22T01:39:44;11.70;;;7.90;;
11984;SDS011;6052;53.246;10.368;2024-03-22T01:42:13;12.98;;;8.25;;
11984;SDS011;6052;53.246;10.368;2024-03-22T01:44:39;14.70;;;8.57;;
11984;SDS011;6052;53.246;10.368;2024-03-22T01:47:05;12.57;;;8.07;;
11984;SDS011;6052;53.246;10.368;2024-03-22T01:49:32;13.33;;;8.43;;
11984;SDS011;6052;53.246;10.368;2024-03-22T01:51:59;11.73;;;7.60;;
11984;SDS011;6052;53.246;10.368;2024-03-22T01:54:25;12.10;;;8.03;;
11984;SDS011;6052;53.246;10.368;2024-03-22T01:56:52;12.50;;;7.40;;
11984;SDS011;6052;53.246;10.368;2024-03-22T01:59:21;12.47;;;8.10;;
11984;SDS011;6052;53.246;10.368;2024-03-22T02:01:47;12.60;;;8.03;;
11984;SDS011;6052;53.246;10.368;2024-03-22T02:04:14;12.93;;;8.53;;
11984;SDS011;6052;53.246;10.368;2024-03-22T02:06:40;14.18;;;8.60;;
11984;SDS011;6052;53.246;10.368;2024-03-22T02:09:06;15.37;;;9.00;;
11984;SDS011;6052;53.246;10.368;2024-03-22T02:11:33;14.10;;;8.40;;
11984;SDS011;6052;53.246;10.368;2024-03-22T02:14:00;16.03;;;9.33;;
11984;SDS011;6052;53.246;10.368;2024-03-22T02:16:28;13.23;;;8.63;;
11984;SDS011;6052;53.246;10.368;2024-03-22T02:18:55;16.50;;;9.50;;
11984;SDS011;6052;53.246;10.368;2024-03-22T02:21:21;12.37;;;8.63;;
11984;SDS011;6052;53.246;10.368;2024-03-22T02:23:50;13.53;;;9.63;;
11984;SDS011;6052;53.246;10.368;2024-03-22T02:26:16;14.73;;;8.93;;
11984;SDS011;6052;53.246;10.368;2024-03-22T02:28:42;13.57;;;9.40;;
11984;SDS011;6052;53.246;10.368;2024-03-22T02:31:08;11.93;;;8.77;;
11984;SDS011;6052;53.246;10.368;2024-03-22T02:33:34;15.40;;;8.97;;
11984;SDS011;6052;53.246;10.368;2024-03-22T02:36:01;15.93;;;10.27;;
11984;SDS011;6052;53.246;10.368;2024-03-22T02:38:27;17.33;;;10.43;;
11984;SDS011;6052;53.246;10.368;2024-03-22T02:40:57;13.90;;;9.27;;
11984;SDS011;6052;53.246;10.368;2024-03-22T02:43:24;14.83;;;9.83;;
11984;SDS011;6052;53.246;10.368;2024-03-22T02:45:50;15.23;;;9.43;;
11984;SDS011;6052;53.246;10.368;2024-03-22T02:48:16;17.13;;;10.90;;
11984;SDS011;6052;53.246;10.368;2024-03-22T02:50:42;15.97;;;10.37;;
11984;SDS011;6052;53.246;10.368;2024-03-22T02:53:08;15.57;;;10.90;;
11984;SDS011;6052;53.246;10.368;2024-03-22T02:55:38;15.53;;;10.70;;
11984;SDS011;6052;53.246;10.368;2024-03-22T02:58:08;17.13;;;11.30;;
11984;SDS011;6052;53.246;10.368;2024-03-22T03:00:38;15.20;;;10.80;;
11984;SDS011;6052;53.246;10.368;2024-03-22T03:03:04;17.03;;;11.50;;
11984;SDS011;6052;53.246;10.368;2024-03-22T03:05:31;22.53;;;12.70;;
11984;SDS011;6052;53.246;10.368;2024-03-22T03:07:57;16.87;;;10.67;;
11984;SDS011;6052;53.246;10.368;2024-03-22T03:10:24;16.17;;;10.67;;
11984;SDS011;6052;53.246;10.368;2024-03-22T03:12:50;17.30;;;11.57;;
11984;SDS011;6052;53.246;10.368;2024-03-22T03:15:18;17.60;;;12.27;;
11984;SDS011;6052;53.246;10.368;2024-03-22T03:17:45;16.63;;;11.33;;
11984;SDS011;6052;53.246;10.368;2024-03-22T03:20:11;20.47;;;12.30;;
11984;SDS011;6052;53.246;10.368;2024-03-22T03:22:37;17.03;;;11.33;;
11984;SDS011;6052;53.246;10.368;2024-03-22T03:25:04;17.00;;;11.40;;
11984;SDS011;6052;53.246;10.368;2024-03-22T03:27:30;17.70;;;11.30;;
11984;SDS011;6052;53.246;10.368;2024-03-22T03:29:56;17.47;;;11.20;;
11984;SDS011;6052;53.246;10.368;2024-03-22T03:32:25;17.33;;;11.23;;
11984;SDS011;6052;53.246;10.368;2024-03-22T03:34:51;19.20;;;11.60;;
11984;SDS011;6052;53.246;10.368;2024-03-22T03:37:17;18.43;;;11.17;;
11984;SDS011;6052;53.246;10.368;2024-03-22T03:39:44;19.00;;;11.40;;
11984;SDS011;6052;53.246;10.368;2024-03-22T03:42:10;19.37;;;12.23;;
11984;SDS011;6052;53.246;10.368;2024-03-22T03:44:36;18.87;;;12.37;;
11984;SDS011;6052;53.246;10.368;2024-03-22T03:47:03;21.60;;;12.20;;
11984;SDS011;6052;53.246;10.368;2024-03-22T03:49:32;19.80;;;12.03;;
11984;SDS011;6052;53.246;10.368;2024-03-22T03:51:58;21.73;;;12.30;;
11984;SDS011;6052;53.246;10.368;2024-03-22T03:54:24;18.90;;;12.67;;
11984;SDS011;6052;53.246;10.368;2024-03-22T03:56:50;22.37;;;13.47;;
11984;SDS011;6052;53.246;10.368;2024-03-22T03:59:16;18.43;;;12.43;;
11984;SDS011;6052;53.246;10.368;2024-03-22T04:01:43;18.17;;;12.77;;
11984;SDS011;6052;53.246;10.368;2024-03-22T04:04:09;19.80;;;12.77;;
11984;SDS011;6052;53.246;10.368;2024-03-22T04:06:38;22.10;;;13.67;;
11984;SDS011;6052;53.246;10.368;2024-03-22T04:09:04;20.43;;;13.87;;
11984;SDS011;6052;53.246;10.368;2024-03-22T04:11:30;22.43;;;13.70;;
11984;SDS011;6052;53.246;10.368;2024-03-22T04:13:57;22.57;;;14.30;;
11984;SDS011;6052;53.246;10.368;2024-03-22T04:16:23;22.63;;;13.40;;
11984;SDS011;6052;53.246;10.368;2024-03-22T04:18:49;24.53;;;14.63;;
11984;SDS011;6052;53.246;10.368;2024-03-22T04:21:15;22.83;;;14.80;;
11984;SDS011;6052;53.246;10.368;2024-03-22T04:23:44;22.97;;;14.03;;
11984;SDS011;6052;53.246;10.368;2024-03-22T04:26:10;23.47;;;14.93;;
11984;SDS011;6052;53.246;10.368;2024-03-22T04:28:36;23.93;;;13.93;;
11984;SDS011;6052;53.246;10.368;2024-03-22T04:31:03;23.90;;;14.50;;
11984;SDS011;6052;53.246;10.368;2024-03-22T04:33:30;25.10;;;14.67;;
11984;SDS011;6052;53.246;10.368;2024-03-22T04:35:58;26.40;;;14.93;;
11984;SDS011;6052;53.246;10.368;2024-03-22T04:38:24;23.97;;;14.60;;
11984;SDS011;6052;53.246;10.368;2024-03-22T04:40:54;21.03;;;13.93;;
11984;SDS011;6052;53.246;10.368;2024-03-22T04:43:20;29.07;;;15.40;;
11984;SDS011;6052;53.246;10.368;2024-03-22T04:45:47;23.43;;;13.27;;
11984;SDS011;6052;53.246;10.368;2024-03-22T04:48:13;24.47;;;14.90;;
11984;SDS011;6052;53.246;10.368;2024-03-22T04:50:42;22.73;;;14.73;;
11984;SDS011;6052;53.246;10.368;2024-03-22T04:53:08;23.10;;;14.70;;
11984;SDS011;6052;53.246;10.368;2024-03-22T04:55:34;27.17;;;15.77;;
11984;SDS011;6052;53.246;10.368;2024-03-22T04:58:03;23.03;;;15.27;;
11984;SDS011;6052;53.246;10.368;2024-03-22T05:00:30;26.27;;;15.17;;
11984;SDS011;6052;53.246;10.368;2024-03-22T05:02:56;24.27;;;14.57;;
11984;SDS011;6052;53.246;10.368;2024-03-22T05:05:22;28.30;;;16.13;;
11984;SDS011;6052;53.246;10.368;2024-03-22T05:07:48;24.73;;;16.53;;
11984;SDS011;6052;53.246;10.368;2024-03-22T05:10:14;27.15;;;16.00;;
11984;SDS011;6052;53.246;10.368;2024-03-22T05:12:41;23.90;;;15.87;;
11984;SDS011;6052;53.246;10.368;2024-03-22T05:15:09;24.93;;;15.73;;
11984;SDS011;6052;53.246;10.368;2024-03-22T05:17:36;23.90;;;15.57;;
11984;SDS011;6052;53.246;10.368;2024-03-22T05:20:02;28.23;;;15.83;;
11984;SDS011;6052;53.246;10.368;2024-03-22T05:22:28;26.87;;;16.77;;
11984;SDS011;6052;53.246;10.368;2024-03-22T05:24:54;29.20;;;16.67;;
11984;SDS011;6052;53.246;10.368;2024-03-22T05:27:21;26.17;;;16.17;;
11984;SDS011;6052;53.246;10.368;2024-03-22T05:29:47;29.20;;;17.17;;
11984;SDS011;6052;53.246;10.368;2024-03-22T05:32:16;26.93;;;17.40;;
11984;SDS011;6052;53.246;10.368;2024-03-22T05:34:42;29.97;;;17.77;;
11984;SDS011;6052;53.246;10.368;2024-03-22T05:37:08;26.00;;;17.30;;
11984;SDS011;6052;53.246;10.368;2024-03-22T05:39:34;28.23;;;16.70;;
11984;SDS011;6052;53.246;10.368;2024-03-22T05:42:00;27.23;;;16.80;;
11984;SDS011;6052;53.246;10.368;2024-03-22T05:44:27;29.50;;;17.65;;
11984;SDS011;6052;53.246;10.368;2024-03-22T05:46:53;32.07;;;18.37;;
11984;SDS011;6052;53.246;10.368;2024-03-22T05:49:22;31.98;;;17.92;;
11984;SDS011;6052;53.246;10.368;2024-03-22T05:51:48;29.60;;;18.30;;
11984;SDS011;6052;53.246;10.368;2024-03-22T05:54:14;33.33;;;18.47;;
11984;SDS011;6052;53.246;10.368;2024-03-22T05:56:40;34.07;;;19.10;;
11984;SDS011;6052;53.246;10.368;2024-03-22T05:59:06;29.30;;;17.52;;
11984;SDS011;6052;53.246;10.368;2024-03-22T06:01:32;32.07;;;18.50;;
11984;SDS011;6052;53.246;10.368;2024-03-22T06:03:58;32.53;;;19.40;;
11984;SDS011;6052;53.246;10.368;2024-03-22T06:06:27;32.80;;;19.67;;
11984;SDS011;6052;53.246;10.368;2024-03-22T06:08:53;32.73;;;18.80;;
11984;SDS011;6052;53.246;10.368;2024-03-22T06:11:20;32.83;;;20.53;;
11984;SDS011;6052;53.246;10.368;2024-03-22T06:13:46;35.30;;;19.33;;
11984;SDS011;6052;53.246;10.368;2024-03-22T06:16:12;32.63;;;19.85;;
11984;SDS011;6052;53.246;10.368;2024-03-22T06:18:39;35.57;;;19.63;;
11984;SDS011;6052;53.246;10.368;2024-03-22T06:21:05;31.73;;;19.92;;
11984;SDS011;6052;53.246;10.368;2024-03-22T06:23:34;37.40;;;21.67;;
11984;SDS011;6052;53.246;10.368;2024-03-22T06:26:00;37.20;;;20.83;;
11984;SDS011;6052;53.246;10.368;2024-03-22T06:28:27;35.23;;;20.93;;
11984;SDS011;6052;53.246;10.368;2024-03-22T06:30:54;34.50;;;21.23;;
11984;SDS011;6052;53.246;10.368;2024-03-22T06:33:20;36.70;;;19.87;;
11984;SDS011;6052;53.246;10.368;2024-03-22T06:35:46;36.17;;;20.88;;
11984;SDS011;6052;53.246;10.368;2024-03-22T06:38:13;37.20;;;20.65;;
11984;SDS011;6052;53.246;10.368;2024-03-22T06:40:42;38.80;;;21.07;;
11984;SDS011;6052;53.246;10.368;2024-03-22T06:43:08;35.65;;;20.85;;
11984;SDS011;6052;53.246;10.368;2024-03-22T06:45:34;36.08;;;19.77;;
11984;SDS011;6052;53.246;10.368;2024-03-22T06:48:00;33.80;;;20.70;;
11984;SDS011;6052;53.246;10.368;2024-03-22T06:50:27;35.13;;;20.10;;
11984;SDS011;6052;53.246;10.368;2024-03-22T06:52:53;34.57;;;20.47;;
11984;SDS011;6052;53.246;10.368;2024-03-22T06:55:19;37.27;;;21.30;;
11984;SDS011;6052;53.246;10.368;2024-03-22T06:57:48;39.77;;;21.73;;
11984;SDS011;6052;53.246;10.368;2024-03-22T07:00:15;34.92;;;21.30;;
11984;SDS011;6052;53.246;10.368;2024-03-22T07:02:42;35.90;;;21.65;;
11984;SDS011;6052;53.246;10.368;2024-03-22T07:05:08;35.78;;;21.40;;
11984;SDS011;6052;53.246;10.368;2024-03-22T07:07:35;36.00;;;21.77;;
11984;SDS011;6052;53.246;10.368;2024-03-22T07:10:02;37.95;;;21.30;;
11984;SDS011;6052;53.246;10.368;2024-03-22T07:12:29;38.67;;;22.23;;
11984;SDS011;6052;53.246;10.368;2024-03-22T07:14:58;38.75;;;22.20;;
11984;SDS011;6052;53.246;10.368;2024-03-22T07:17:25;39.72;;;23.13;;
11984;SDS011;6052;53.246;10.368;2024-03-22T07:19:51;39.70;;;23.30;;
11984;SDS011;6052;53.246;10.368;2024-03-22T07:22:18;42.90;;;22.07;;
11984;SDS011;6052;53.246;10.368;2024-03-22T07:24:44;41.07;;;23.33;;
11984;SDS011;6052;53.246;10.368;2024-03-22T07:27:10;39.15;;;21.70;;
11984;SDS011;6052;53.246;10.368;2024-03-22T07:29:37;40.00;;;23.15;;
11984;SDS011;6052;53.246;10.368;2024-03-22T07:32:06;40.70;;;23.15;;
11984;SDS011;6052;53.246;10.368;2024-03-22T07:34:32;44.53;;;23.50;;
11984;SDS011;6052;53.246;10.368;2024-03-22T07:36:58;39.22;;;23.45;;
11984;SDS011;6052;53.246;10.368;2024-03-22T07:39:24;45.25;;;25.10;;
11984;SDS011;6052;53.246;10.368;2024-03-22T07:41:51;43.03;;;24.20;;
11984;SDS011;6052;53.246;10.368;2024-03-22T07:44:17;44.47;;;24.55;;
11984;SDS011;6052;53.246;10.368;2024-03-22T07:46:43;44.13;;;25.48;;
11984;SDS011;6052;53.246;10.368;2024-03-22T07:49:12;46.47;;;25.45;;
11984;SDS011;6052;53.246;10.368;2024-03-22T07:51:38;43.85;;;24.77;;
11984;SDS011;6052;53.246;10.368;2024-03-22T07:54:05;42.05;;;24.02;;
11984;SDS011;6052;53.246;10.368;2024-03-22T07:56:31;46.45;;;24.70;;
11984;SDS011;6052;53.246;10.368;2024-03-22T07:58:57;47.10;;;24.77;;
11984;SDS011;6052;53.246;10.368;2024-03-22T08:01:24;48.88;;;26.92;;
11984;SDS011;6052;53.246;10.368;2024-03-22T08:03:50;43.28;;;24.13;;
11984;SDS011;6052;53.246;10.368;2024-03-22T08:06:19;47.10;;;26.48;;
11984;SDS011;6052;53.246;10.368;2024-03-22T08:08:46;42.50;;;24.13;;
11984;SDS011;6052;53.246;10.368;2024-03-22T08:11:12;45.70;;;24.77;;
11984;SDS011;6052;53.246;10.368;2024-03-22T08:13:38;43.63;;;25.20;;
11984;SDS011;6052;53.246;10.368;2024-03-22T08:16:05;47.60;;;26.08;;
11984;SDS011;6052;53.246;10.368;2024-03-22T08:18:31;43.47;;;25.95;;
11984;SDS011;6052;53.246;10.368;2024-03-22T08:20:58;45.28;;;24.27;;
11984;SDS011;6052;53.246;10.368;2024-03-22T08:23:27;44.10;;;25.75;;
11984;SDS011;6052;53.246;10.368;2024-03-22T08:25:53;50.30;;;26.65;;
11984;SDS011;6052;53.246;10.368;2024-03-22T08:28:19;50.88;;;26.73;;
11984;SDS011;6052;53.246;10.368;2024-03-22T08:30:45;44.55;;;24.42;;
11984;SDS011;6052;53.246;10.368;2024-03-22T08:33:11;49.35;;;26.58;;
11984;SDS011;6052;53.246;10.368;2024-03-22T08:35:38;45.70;;;25.88;;
11984;SDS011;6052;53.246;10.368;2024-03-22T08:38:04;48.30;;;25.88;;
11984;SDS011;6052;53.246;10.368;2024-03-22T08:40:33;47.55;;;25.30;;
11984;SDS011;6052;53.246;10.368;2024-03-22T08:42:59;46.65;;;25.45;;
11984;SDS011;6052;53.246;10.368;2024-03-22T08:45:27;50.70;;;25.48;;
11984;SDS011;6052;53.246;10.368;2024-03-22T08:47:53;47.03;;;24.88;;
11984;SDS011;6052;53.246;10.368;2024-03-22T08:50:19;47.05;;;25.25;;
11984;SDS011;6052;53.246;10.368;2024-03-22T08:52:45;47.47;;;25.88;;
11984;SDS011;6052;53.246;10.368;2024-03-22T08:55:11;48.13;;;25.92;;
11984;SDS011;6052;53.246;10.368;2024-03-22T08:57:40;46.65;;;24.55;;
11984;SDS011;6052;53.246;10.368;2024-03-22T09:00:06;45.92;;;24.52;;
11984;SDS011;6052;53.246;10.368;2024-03-22T09:02:33;44.65;;;22.95;;
11984;SDS011;6052;53.246;10.368;2024-03-22T09:04:59;43.72;;;23.67;;
11984;SDS011;6052;53.246;10.368;2024-03-22T09:07:26;46.03;;;24.25;;
11984;SDS011;6052;53.246;10.368;2024-03-22T09:09:52;42.92;;;23.95;;
11984;SDS011;6052;53.246;10.368;2024-03-22T09:12:18;45.83;;;25.58;;
11984;SDS011;6052;53.246;10.368;2024-03-22T09:14:47;48.00;;;24.90;;
11984;SDS011;6052;53.246;10.368;2024-03-22T09:17:13;52.13;;;26.08;;
11984;SDS011;6052;53.246;10.368;2024-03-22T09:19:39;45.15;;;24.17;;
11984;SDS011;6052;53.246;10.368;2024-03-22T09:22:05;45.53;;;24.48;;
11984;SDS011;6052;53.246;10.368;2024-03-22T09:24:31;47.80;;;24.55;;
11984;SDS011;6052;53.246;10.368;2024-03-22T09:26:57;41.25;;;23.77;;
11984;SDS011;6052;53.246;10.368;2024-03-22T09:29:24;44.42;;;23.90;;
11984;SDS011;6052;53.246;10.368;2024-03-22T09:31:52;44.38;;;23.25;;
11984;SDS011;6052;53.246;10.368;2024-03-22T09:34:19;48.20;;;24.65;;
11984;SDS011;6052;53.246;10.368;2024-03-22T09:36:45;46.53;;;25.00;;
11984;SDS011;6052;53.246;10.368;2024-03-22T09:39:11;42.45;;;22.10;;
11984;SDS011;6052;53.246;10.368;2024-03-22T09:41:39;43.20;;;23.08;;
11984;SDS011;6052;53.246;10.368;2024-03-22T09:44:09;42.05;;;23.20;;
11984;SDS011;6052;53.246;10.368;2024-03-22T09:46:38;41.90;;;22.63;;
11984;SDS011;6052;53.246;10.368;2024-03-22T09:49:08;43.67;;;23.27;;
11984;SDS011;6052;53.246;10.368;2024-03-22T09:51:35;42.40;;;22.38;;
11984;SDS011;6052;53.246;10.368;2024-03-22T09:54:02;41.75;;;21.65;;
11984;SDS011;6052;53.246;10.368;2024-03-22T09:56:29;40.03;;;22.85;;
11984;SDS011;6052;53.246;10.368;2024-03-22T09:58:56;37.65;;;20.25;;
11984;SDS011;6052;53.246;10.368;2024-03-22T10:01:23;42.75;;;21.35;;
11984;SDS011;6052;53.246;10.368;2024-03-22T10:03:49;38.30;;;21.98;;
11984;SDS011;6052;53.246;10.368;2024-03-22T10:06:19;41.03;;;22.88;;
11984;SDS011;6052;53.246;10.368;2024-03-22T10:08:46;37.65;;;21.48;;
11984;SDS011;6052;53.246;10.368;2024-03-22T10:11:12;43.22;;;21.95;;
11984;SDS011;6052;53.246;10.368;2024-03-22T10:13:38;41.75;;;22.65;;
11984;SDS011;6052;53.246;10.368;2024-03-22T10:16:04;37.95;;;21.45;;
11984;SDS011;6052;53.246;10.368;2024-03-22T10:18:32;41.60;;;21.48;;
11984;SDS011;6052;53.246;10.368;2024-03-22T10:20:59;37.65;;;20.92;;
11984;SDS011;6052;53.246;10.368;2024-03-22T10:23:29;35.30;;;19.73;;
11984;SDS011;6052;53.246;10.368;2024-03-22T10:25:56;40.67;;;20.27;;
11984;SDS011;6052;53.246;10.368;2024-03-22T10:28:22;35.33;;;20.88;;
11984;SDS011;6052;53.246;10.368;2024-03-22T10:30:49;40.88;;;21.42;;
11984;SDS011;6052;53.246;10.368;2024-03-22T10:33:17;36.63;;;20.90;;
11984;SDS011;6052;53.246;10.368;2024-03-22T10:35:44;35.90;;;20.33;;
11984;SDS011;6052;53.246;10.368;2024-03-22T10:38:10;39.97;;;21.25;;
11984;SDS011;6052;53.246;10.368;2024-03-22T10:40:41;38.40;;;20.83;;
11984;SDS011;6052;53.246;10.368;2024-03-22T10:43:10;40.20;;;21.88;;
11984;SDS011;6052;53.246;10.368;2024-03-22T10:45:36;41.55;;;22.38;;
11984;SDS011;6052;53.246;10.368;2024-03-22T10:48:05;36.05;;;20.60;;
11984;SDS011;6052;53.246;10.368;2024-03-22T10:50:34;40.55;;;20.95;;
11984;SDS011;6052;53.246;10.368;2024-03-22T10:53:06;41.58;;;21.50;;
11984;SDS011;6052;53.246;10.368;2024-03-22T10:55:35;37.78;;;20.42;;
11984;SDS011;6052;53.246;10.368;2024-03-22T10:58:06;34.42;;;19.08;;
11984;SDS011;6052;53.246;10.368;2024-03-22T11:00:33;32.90;;;19.05;;
11984;SDS011;6052;53.246;10.368;2024-03-22T11:03:01;39.17;;;21.40;;
11984;SDS011;6052;53.246;10.368;2024-03-22T11:05:28;38.88;;;20.02;;
11984;SDS011;6052;53.246;10.368;2024-03-22T11:08:00;34.08;;;18.75;;
11984;SDS011;6052;53.246;10.368;2024-03-22T11:10:30;34.88;;;20.52;;
11984;SDS011;6052;53.246;10.368;2024-03-22T11:13:00;34.47;;;18.52;;
11984;SDS011;6052;53.246;10.368;2024-03-22T11:15:30;36.22;;;18.88;;
11984;SDS011;6052;53.246;10.368;2024-03-22T11:17:56;33.83;;;18.38;;
11984;SDS011;6052;53.246;10.368;2024-03-22T11:20:23;33.50;;;18.88;;
11984;SDS011;6052;53.246;10.368;2024-03-22T11:22:50;34.10;;;18.73;;
11984;SDS011;6052;53.246;10.368;2024-03-22T11:25:17;32.38;;;18.55;;
11984;SDS011;6052;53.246;10.368;2024-03-22T11:27:43;32.85;;;18.88;;
11984;SDS011;6052;53.246;10.368;2024-03-22T11:30:09;34.08;;;19.42;;
11984;SDS011;6052;53.246;10.368;2024-03-22T11:32:38;33.08;;;19.45;;
11984;SDS011;6052;53.246;10.368;2024-03-22T11:35:08;31.83;;;18.00;;
11984;SDS011;6052;53.246;10.368;2024-03-22T11:37:35;34.58;;;18.35;;
11984;SDS011;6052;53.246;10.368;2024-03-22T11:40:01;33.63;;;19.60;;
11984;SDS011;6052;53.246;10.368;2024-03-22T11:42:28;31.73;;;18.15;;
11984;SDS011;6052;53.246;10.368;2024-03-22T11:44:54;28.98;;;16.55;;
11984;SDS011;6052;53.246;10.368;2024-03-22T11:47:21;30.00;;;17.27;;
11984;SDS011;6052;53.246;10.368;2024-03-22T11:49:50;23.52;;;14.90;;
11984;SDS011;6052;53.246;10.368;2024-03-22T11:52:16;27.45;;;15.10;;
11984;SDS011;6052;53.246;10.368;2024-03-22T11:54:42;25.85;;;15.00;;
11984;SDS011;6052;53.246;10.368;2024-03-22T11:57:08;26.92;;;13.70;;
11984;SDS011;6052;53.246;10.368;2024-03-22T11:59:35;20.80;;;12.85;;
11984;SDS011;6052;53.246;10.368;2024-03-22T12:02:01;20.45;;;12.18;;
11984;SDS011;6052;53.246;10.368;2024-03-22T12:04:27;18.23;;;11.98;;
11984;SDS011;6052;53.246;10.368;2024-03-22T12:06:56;20.40;;;11.68;;
11984;SDS011;6052;53.246;10.368;2024-03-22T12:09:22;17.98;;;11.65;;
11984;SDS011;6052;53.246;10.368;2024-03-22T12:11:48;19.15;;;11.48;;
11984;SDS011;6052;53.246;10.368;2024-03-22T12:14:14;19.40;;;11.50;;
11984;SDS011;6052;53.246;10.368;2024-03-22T12:16:40;18.23;;;10.93;;
11984;SDS011;6052;53.246;10.368;2024-03-22T12:19:06;16.63;;;10.05;;
11984;SDS011;6052;53.246;10.368;2024-03-22T12:21:32;15.85;;;10.50;;
11984;SDS011;6052;53.246;10.368;2024-03-22T12:24:01;16.23;;;10.43;;
11984;SDS011;6052;53.246;10.368;2024-03-22T12:26:27;15.02;;;9.38;;
11984;SDS011;6052;53.246;10.368;2024-03-22T12:28:53;15.15;;;9.40;;
11984;SDS011;6052;53.246;10.368;2024-03-22T12:31:20;16.25;;;9.00;;
11984;SDS011;6052;53.246;10.368;2024-03-22T12:33:46;17.42;;;9.40;;
11984;SDS011;6052;53.246;10.368;2024-03-22T12:36:12;15.90;;;9.65;;
11984;SDS011;6052;53.246;10.368;2024-03-22T12:38:38;13.52;;;9.00;;
11984;SDS011;6052;53.246;10.368;2024-03-22T12:41:07;14.63;;;8.95;;
11984;SDS011;6052;53.246;10.368;2024-03-22T12:43:33;11.90;;;8.15;;
11984;SDS011;6052;53.246;10.368;2024-03-22T12:45:59;12.75;;;7.78;;
11984;SDS011;6052;53.246;10.368;2024-03-22T12:48:25;10.40;;;7.32;;
11984;SDS011;6052;53.246;10.368;2024-03-22T12:50:52;11.73;;;7.80;;
11984;SDS011;6052;53.246;10.368;2024-03-22T12:53:18;12.32;;;7.95;;
11984;SDS011;6052;53.246;10.368;2024-03-22T12:55:44;14.13;;;7.35;;
11984;SDS011;6052;53.246;10.368;2024-03-22T12:58:12;10.82;;;6.55;;
11984;SDS011;6052;53.246;10.368;2024-03-22T13:00:39;9.75;;;7.50;;
11984;SDS011;6052;53.246;10.368;2024-03-22T13:03:05;11.63;;;6.47;;
11984;SDS011;6052;53.246;10.368;2024-03-22T13:05:31;8.52;;;6.30;;
11984;SDS011;6052;53.246;10.368;2024-03-22T13:07:58;8.30;;;5.93;;
11984;SDS011;6052;53.246;10.368;2024-03-22T13:10:24;9.32;;;6.30;;
11984;SDS011;6052;53.246;10.368;2024-03-22T13:12:50;9.40;;;6.50;;
11984;SDS011;6052;53.246;10.368;2024-03-22T13:15:19;12.40;;;7.57;;
11984;SDS011;6052;53.246;10.368;2024-03-22T13:17:45;10.70;;;7.03;;
11984;SDS011;6052;53.246;10.368;2024-03-22T13:20:11;9.73;;;6.10;;
11984;SDS011;6052;53.246;10.368;2024-03-22T13:22:37;10.93;;;6.68;;
11984;SDS011;6052;53.246;10.368;2024-03-22T13:25:04;13.15;;;8.25;;
11984;SDS011;6052;53.246;10.368;2024-03-22T13:27:30;12.90;;;6.80;;
11984;SDS011;6052;53.246;10.368;2024-03-22T13:29:56;13.20;;;6.90;;
11984;SDS011;6052;53.246;10.368;2024-03-22T13:32:25;11.05;;;6.80;;
11984;SDS011;6052;53.246;10.368;2024-03-22T13:34:51;10.75;;;6.65;;
11984;SDS011;6052;53.246;10.368;2024-03-22T13:37:17;15.45;;;7.40;;
11984;SDS011;6052;53.246;10.368;2024-03-22T13:39:47;10.52;;;6.60;;
11984;SDS011;6052;53.246;10.368;2024-03-22T13:42:13;8.27;;;6.43;;
11984;SDS011;6052;53.246;10.368;2024-03-22T13:44:40;9.95;;;6.57;;
11984;SDS011;6052;53.246;10.368;2024-03-22T13:47:07;10.27;;;7.28;;
11984;SDS011;6052;53.246;10.368;2024-03-22T13:49:35;9.70;;;6.80;;
11984;SDS011;6052;53.246;10.368;2024-03-22T13:52:02;10.50;;;6.35;;
11984;SDS011;6052;53.246;10.368;2024-03-22T13:54:28;10.63;;;6.05;;
11984;SDS011;6052;53.246;10.368;2024-03-22T13:56:54;11.48;;;6.68;;
11984;SDS011;6052;53.246;10.368;2024-03-22T13:59:20;7.55;;;5.95;;
11984;SDS011;6052;53.246;10.368;2024-03-22T14:01:46;9.43;;;5.65;;
11984;SDS011;6052;53.246;10.368;2024-03-22T14:04:13;9.13;;;6.13;;
11984;SDS011;6052;53.246;10.368;2024-03-22T14:06:42;8.55;;;5.47;;
11984;SDS011;6052;53.246;10.368;2024-03-22T14:09:08;8.82;;;5.95;;
11984;SDS011;6052;53.246;10.368;2024-03-22T14:11:35;8.88;;;5.63;;
11984;SDS011;6052;53.246;10.368;2024-03-22T14:14:02;8.07;;;5.32;;
11984;SDS011;6052;53.246;10.368;2024-03-22T14:16:28;7.93;;;5.65;;
11984;SDS011;6052;53.246;10.368;2024-03-22T14:18:54;7.20;;;5.55;;
11984;SDS011;6052;53.246;10.368;2024-03-22T14:21:20;10.02;;;6.00;;
11984;SDS011;6052;53.246;10.368;2024-03-22T14:23:49;8.80;;;5.85;;